createdAt,value
2023-01-12T00:02:25.364Z,9.70
2023-01-12T00:04:53.596Z,9.70
2023-01-12T00:07:21.662Z,9.70
2023-01-12T00:09:49.651Z,9.70
2023-01-12T00:12:17.657Z,9.70
2023-01-12T00:14:45.777Z,9.80
2023-01-12T00:17:17.645Z,9.80
2023-01-12T00:19:45.739Z,9.80
2023-01-12T00:22:14.297Z,9.80
2023-01-12T00:24:44.533Z,9.70
2023-01-12T00:27:15.343Z,9.70
2023-01-12T00:29:43.788Z,9.80
2023-01-12T00:32:15.077Z,9.80
2023-01-12T00:34:43.231Z,9.80
2023-01-12T00:37:11.809Z,9.80
2023-01-12T00:39:43.012Z,9.80
2023-01-12T00:42:37.262Z,9.80
2023-01-12T00:45:24.996Z,9.80
2023-01-12T00:47:54.853Z,9.80
2023-01-12T00:50:23.204Z,9.80
2023-01-12T00:52:51.359Z,9.80
2023-01-12T00:55:19.640Z,9.80
2023-01-12T00:57:47.671Z,9.80
2023-01-12T01:00:17.018Z,9.80
2023-01-12T01:02:45.135Z,9.80
2023-01-12T01:05:14.936Z,9.80
2023-01-12T01:07:42.862Z,9.80
2023-01-12T01:10:12.242Z,9.80
2023-01-12T01:12:40.375Z,9.80
2023-01-12T01:15:10.094Z,9.80
2023-01-12T01:17:38.162Z,9.70
2023-01-12T01:20:06.875Z,9.70
2023-01-12T01:22:36.474Z,9.70
2023-01-12T01:25:04.757Z,9.70
2023-01-12T01:27:32.734Z,9.70
2023-01-12T01:30:00.892Z,9.70
2023-01-12T01:32:34.429Z,9.70
2023-01-12T01:35:02.837Z,9.70
2023-01-12T01:37:31.182Z,9.70
2023-01-12T01:40:00.750Z,9.70
2023-01-12T01:42:28.831Z,9.70
2023-01-12T01:44:58.797Z,9.70
2023-01-12T01:47:32.148Z,9.60
2023-01-12T01:50:02.486Z,9.60
2023-01-12T01:52:34.639Z,9.60
2023-01-12T01:55:07.384Z,9.60
2023-01-12T01:57:41.166Z,9.60
2023-01-12T02:00:11.348Z,9.70
2023-01-12T02:02:41.504Z,9.60
2023-01-12T02:05:11.082Z,9.70
2023-01-12T02:07:39.660Z,9.70
2023-01-12T02:10:10.546Z,9.70
2023-01-12T02:12:57.634Z,9.70
2023-01-12T02:15:46.984Z,9.70
2023-01-12T02:18:22.509Z,9.70
2023-01-12T02:21:03.818Z,9.70
2023-01-12T02:24:09.667Z,9.80
2023-01-12T02:27:18.461Z,9.80
2023-01-12T02:30:19.410Z,9.80
2023-01-12T02:32:56.619Z,9.80
2023-01-12T02:35:31.584Z,9.80
2023-01-12T02:38:07.592Z,9.80
2023-01-12T02:40:44.633Z,9.80
2023-01-12T02:43:15.247Z,9.80
2023-01-12T02:45:53.037Z,9.80
2023-01-12T02:48:27.787Z,9.80
2023-01-12T02:51:01.716Z,9.80
2023-01-12T02:53:34.270Z,9.80
2023-01-12T02:56:05.557Z,9.80
2023-01-12T02:58:36.957Z,9.80
2023-01-12T03:01:06.596Z,9.80
2023-01-12T03:03:39.914Z,9.80
2023-01-12T03:06:08.719Z,9.70
2023-01-12T03:08:38.362Z,9.80
2023-01-12T03:11:15.019Z,9.80
2023-01-12T03:13:48.727Z,9.70
2023-01-12T03:16:21.062Z,9.70
2023-01-12T03:18:54.905Z,9.70
2023-01-12T03:21:28.168Z,9.70
2023-01-12T03:24:01.211Z,9.70
2023-01-12T03:26:32.436Z,9.70
2023-01-12T03:29:05.362Z,9.70
2023-01-12T03:31:33.747Z,9.70
2023-01-12T03:34:03.220Z,9.70
2023-01-12T03:36:41.796Z,9.70
2023-01-12T03:39:17.108Z,9.70
2023-01-12T03:41:55.003Z,9.70
2023-01-12T03:44:30.705Z,9.70
2023-01-12T03:47:02.639Z,9.70
2023-01-12T03:49:35.033Z,9.60
2023-01-12T03:52:04.613Z,9.60
2023-01-12T03:54:34.557Z,9.60
2023-01-12T03:57:04.013Z,9.60
2023-01-12T03:59:31.998Z,9.60
2023-01-12T04:02:00.034Z,9.60
2023-01-12T04:04:27.839Z,9.60
2023-01-12T04:06:57.373Z,9.60
2023-01-12T04:09:26.134Z,9.50
2023-01-12T04:12:12.060Z,9.50
2023-01-12T04:14:41.054Z,9.60
2023-01-12T04:17:10.101Z,9.60
2023-01-12T04:19:38.287Z,9.60
2023-01-12T04:22:27.763Z,9.60
2023-01-12T04:24:55.550Z,9.60
2023-01-12T04:27:23.328Z,9.60
2023-01-12T04:29:51.222Z,9.60
2023-01-12T04:32:18.958Z,9.60
2023-01-12T04:34:47.181Z,9.50
2023-01-12T04:37:16.347Z,9.50
2023-01-12T04:39:44.378Z,9.50
2023-01-12T04:42:32.235Z,9.50
2023-01-12T04:45:00.222Z,9.50
2023-01-12T04:47:28.092Z,9.50
2023-01-12T04:49:56.003Z,9.50
2023-01-12T04:52:25.404Z,9.40
2023-01-12T04:54:55.103Z,9.40
2023-01-12T04:57:24.524Z,9.40
2023-01-12T04:59:52.422Z,9.40
2023-01-12T05:02:20.524Z,9.30
2023-01-12T05:04:48.925Z,9.20
2023-01-12T05:07:17.518Z,9.20
2023-01-12T05:10:05.541Z,9.10
2023-01-12T05:12:33.564Z,9.10
2023-01-12T05:15:01.610Z,9.00
2023-01-12T05:17:29.662Z,9.00
2023-01-12T05:19:59.868Z,9.00
2023-01-12T05:22:28.745Z,9.00
2023-01-12T05:24:58.093Z,9.00
2023-01-12T05:27:26.069Z,9.00
2023-01-12T05:29:53.977Z,8.90
2023-01-12T05:32:22.036Z,8.90
2023-01-12T05:34:49.912Z,8.90
2023-01-12T05:37:18.048Z,8.90
2023-01-12T05:39:45.894Z,8.90
2023-01-12T05:42:53.721Z,8.90
2023-01-12T05:45:21.712Z,8.90
2023-01-12T05:47:57.535Z,8.90
2023-01-12T05:50:25.583Z,8.80
2023-01-12T05:53:08.413Z,8.80
2023-01-12T05:55:37.719Z,8.80
2023-01-12T05:58:07.067Z,8.80
2023-01-12T06:00:35.087Z,8.80
2023-01-12T06:03:03.177Z,8.80
2023-01-12T06:05:31.153Z,8.80
2023-01-12T06:07:59.603Z,8.80
2023-01-12T06:10:27.697Z,8.70
2023-01-12T06:13:13.852Z,8.70
2023-01-12T06:15:43.287Z,8.70
2023-01-12T06:18:11.516Z,8.60
2023-01-12T06:20:39.444Z,8.70
2023-01-12T06:23:07.412Z,8.60
2023-01-12T06:25:35.465Z,8.60
2023-01-12T06:28:06.049Z,8.50
2023-01-12T06:30:34.084Z,8.50
2023-01-12T06:33:04.396Z,8.50
2023-01-12T06:35:32.607Z,8.40
2023-01-12T06:38:00.836Z,8.50
2023-01-12T06:40:29.016Z,8.50
2023-01-12T06:42:57.015Z,8.40
2023-01-12T06:45:25.088Z,8.40
2023-01-12T06:47:53.254Z,8.40
2023-01-12T06:50:22.734Z,8.40
2023-01-12T06:52:50.919Z,8.40
2023-01-12T06:55:19.334Z,8.40
2023-01-12T06:57:47.338Z,8.30
2023-01-12T07:00:15.867Z,8.40
2023-01-12T07:02:43.942Z,8.40
2023-01-12T07:05:11.879Z,8.40
2023-01-12T07:07:41.589Z,8.30
2023-01-12T07:10:11.369Z,8.40
2023-01-12T07:12:39.649Z,8.50
2023-01-12T07:15:09.118Z,8.50
2023-01-12T07:17:37.231Z,8.50
2023-01-12T07:20:06.179Z,8.50
2023-01-12T07:22:34.208Z,8.50
2023-01-12T07:25:03.825Z,8.50
2023-01-12T07:27:31.736Z,8.60
2023-01-12T07:29:59.807Z,8.60
2023-01-12T07:32:29.767Z,8.40
2023-01-12T07:34:58.377Z,8.50
2023-01-12T07:37:26.296Z,8.60
2023-01-12T07:39:54.547Z,8.60
2023-01-12T07:42:23.928Z,8.70
2023-01-12T07:44:52.987Z,8.60
2023-01-12T07:47:21.157Z,8.70
2023-01-12T07:49:49.172Z,8.80
2023-01-12T07:52:17.157Z,8.70
2023-01-12T07:54:45.251Z,8.50
2023-01-12T07:57:13.258Z,8.60
2023-01-12T07:59:42.882Z,8.60
2023-01-12T08:02:17.025Z,8.70
2023-01-12T08:04:45.579Z,8.80
2023-01-12T08:07:15.134Z,8.80
2023-01-12T08:09:43.264Z,8.90
2023-01-12T08:12:11.319Z,8.90
2023-01-12T08:14:42.184Z,9.00
2023-01-12T08:17:15.055Z,9.00
2023-01-12T08:19:47.246Z,9.00
2023-01-12T08:22:18.999Z,9.10
2023-01-12T08:24:52.134Z,9.20
2023-01-12T08:27:25.206Z,9.20
2023-01-12T08:29:58.849Z,9.30
2023-01-12T08:32:28.813Z,9.30
2023-01-12T08:35:01.833Z,9.40
2023-01-12T08:37:31.370Z,9.50
2023-01-12T08:39:59.567Z,9.60
2023-01-12T08:42:31.910Z,9.80
2023-01-12T08:45:01.546Z,9.80
2023-01-12T08:47:30.818Z,9.80
2023-01-12T08:50:00.728Z,9.90
2023-01-12T08:52:34.961Z,10.00
2023-01-12T08:55:02.933Z,10.10
2023-01-12T08:57:30.950Z,10.10
2023-01-12T09:00:00.521Z,10.20
2023-01-12T09:02:28.565Z,10.20
2023-01-12T09:04:56.561Z,10.30
2023-01-12T09:07:24.612Z,10.40
2023-01-12T09:09:52.570Z,10.50
2023-01-12T09:12:22.103Z,10.50
2023-01-12T09:14:51.296Z,10.60
2023-01-12T09:17:23.169Z,10.70
2023-01-12T09:19:51.803Z,10.70
2023-01-12T09:22:19.681Z,10.70
2023-01-12T09:24:47.794Z,10.70
2023-01-12T09:27:15.781Z,10.80
2023-01-12T09:29:43.887Z,10.90
2023-01-12T09:32:11.743Z,11.00
2023-01-12T09:34:41.356Z,11.10
2023-01-12T09:37:09.335Z,11.30
2023-01-12T09:39:37.302Z,11.40
2023-01-12T09:42:25.088Z,11.60
2023-01-12T09:45:12.230Z,11.70
2023-01-12T09:47:49.172Z,11.80
2023-01-12T09:50:22.529Z,12.00
2023-01-12T09:52:53.199Z,12.10
2023-01-12T09:55:23.515Z,12.30
2023-01-12T09:58:13.191Z,12.30
2023-01-12T10:00:41.314Z,12.30
2023-01-12T10:03:16.670Z,12.20
2023-01-12T10:05:49.866Z,12.10
2023-01-12T10:08:25.844Z,12.10
2023-01-12T10:11:06.010Z,12.00
2023-01-12T10:14:06.515Z,11.90
2023-01-12T10:16:47.371Z,11.90
2023-01-12T10:19:22.752Z,11.90
2023-01-12T10:21:54.002Z,11.90
2023-01-12T10:24:24.071Z,11.70
2023-01-12T10:26:57.564Z,11.70
2023-01-12T10:29:29.392Z,11.80
2023-01-12T10:31:57.668Z,11.80
2023-01-12T10:34:25.790Z,11.90
2023-01-12T10:37:01.171Z,11.90
2023-01-12T10:39:31.927Z,12.00
2023-01-12T10:42:37.160Z,12.10
2023-01-12T10:45:16.853Z,12.10
2023-01-12T10:47:46.905Z,12.10
2023-01-12T10:50:23.366Z,12.20
2023-01-12T10:52:56.269Z,12.40
2023-01-12T10:55:29.019Z,12.50
2023-01-12T10:57:57.175Z,12.60
2023-01-12T11:00:26.773Z,12.60
2023-01-12T11:02:55.339Z,12.70
2023-01-12T11:05:34.231Z,12.70
2023-01-12T11:08:03.866Z,12.80
2023-01-12T11:10:33.468Z,12.80
2023-01-12T11:13:06.245Z,12.80
2023-01-12T11:15:39.222Z,12.80
2023-01-12T11:18:23.403Z,12.80
2023-01-12T11:20:54.623Z,12.80
2023-01-12T11:23:30.814Z,12.70
2023-01-12T11:26:01.684Z,12.80
2023-01-12T11:28:33.846Z,12.90
2023-01-12T11:31:08.892Z,13.10
2023-01-12T11:33:41.673Z,13.20
2023-01-12T11:36:12.089Z,13.40
2023-01-12T11:38:44.006Z,13.50
2023-01-12T11:41:29.407Z,13.60
2023-01-12T11:44:02.693Z,13.60
2023-01-12T11:46:36.743Z,13.70
2023-01-12T11:49:13.275Z,13.80
2023-01-12T11:51:41.585Z,13.90
2023-01-12T11:54:16.648Z,13.80
2023-01-12T11:57:03.312Z,13.80
2023-01-12T11:59:39.750Z,13.90
2023-01-12T12:02:21.871Z,14.00
2023-01-12T12:05:01.010Z,14.00
2023-01-12T12:07:42.678Z,14.00
2023-01-12T12:10:23.972Z,14.00
2023-01-12T12:13:29.932Z,14.10
2023-01-12T12:16:07.483Z,14.00
2023-01-12T12:18:52.076Z,14.00
2023-01-12T12:21:36.485Z,14.00
2023-01-12T12:24:13.755Z,14.10
2023-01-12T12:26:49.020Z,14.20
2023-01-12T12:29:30.693Z,14.30
2023-01-12T12:32:20.326Z,14.40
2023-01-12T12:35:05.745Z,14.40
2023-01-12T12:37:49.078Z,14.50
2023-01-12T12:40:31.003Z,14.60
2023-01-12T12:43:32.045Z,14.50
2023-01-12T12:46:10.373Z,14.40
2023-01-12T12:48:49.489Z,14.20
2023-01-12T12:51:18.091Z,14.10
2023-01-12T12:53:49.943Z,14.00
2023-01-12T12:56:20.881Z,13.90
2023-01-12T12:58:51.485Z,13.90
2023-01-12T13:01:55.213Z,14.00
2023-01-12T13:05:03.192Z,14.10
2023-01-12T13:07:37.280Z,14.30
2023-01-12T13:10:21.331Z,14.50
2023-01-12T13:12:58.565Z,14.60
2023-01-12T13:15:32.792Z,14.70
2023-01-12T13:18:00.793Z,14.80
2023-01-12T13:20:53.315Z,15.00
2023-01-12T13:23:50.847Z,15.10
2023-01-12T13:26:46.101Z,15.20
2023-01-12T13:29:42.459Z,15.30
2023-01-12T13:32:35.716Z,15.30
2023-01-12T13:35:04.667Z,15.40
2023-01-12T13:37:45.133Z,15.20
2023-01-12T13:40:19.595Z,15.00
2023-01-12T13:43:08.899Z,14.90
2023-01-12T13:45:37.761Z,14.80
2023-01-12T13:48:09.311Z,14.70
2023-01-12T13:50:37.873Z,14.60
2023-01-12T13:53:06.136Z,14.50
2023-01-12T13:55:36.407Z,14.40
2023-01-12T14:21:25.573Z,14.10
2023-01-12T14:23:53.968Z,14.00
2023-01-12T14:26:24.187Z,14.00
2023-01-12T14:28:53.325Z,13.90
2023-01-12T14:31:27.753Z,13.90
2023-01-12T14:33:58.642Z,13.90
2023-01-12T14:36:29.864Z,13.90
2023-01-12T14:39:00.139Z,13.90
2023-01-12T14:41:48.773Z,13.90
2023-01-12T14:44:37.655Z,13.90
2023-01-12T14:47:05.916Z,13.80
2023-01-12T14:49:34.908Z,13.80
2023-01-12T14:52:23.704Z,13.80
2023-01-12T14:54:52.427Z,13.70
2023-01-12T14:57:24.135Z,13.70
2023-01-12T14:59:52.797Z,13.60
2023-01-12T15:02:30.370Z,13.50
2023-01-12T15:05:01.779Z,13.50
2023-01-12T15:07:34.645Z,13.50
2023-01-12T15:10:23.386Z,13.50
2023-01-12T15:12:54.319Z,13.50
2023-01-12T15:15:24.351Z,13.50
2023-01-12T15:18:12.362Z,13.40
2023-01-12T15:21:01.278Z,13.40
2023-01-12T15:23:51.807Z,13.40
2023-01-12T15:26:20.789Z,13.30
2023-01-12T15:28:49.109Z,13.30
2023-01-12T15:31:21.769Z,13.30
2023-01-12T15:33:49.774Z,13.30
2023-01-12T15:36:17.795Z,13.20
2023-01-12T15:38:47.090Z,13.20
2023-01-12T15:41:18.089Z,13.20
2023-01-12T15:43:46.225Z,13.30
2023-01-12T15:46:20.300Z,13.40
2023-01-12T15:48:48.200Z,13.20
2023-01-12T15:51:16.639Z,13.10
2023-01-12T15:53:44.425Z,13.00
2023-01-12T15:56:15.514Z,12.90
2023-01-12T15:58:43.380Z,12.80
2023-01-12T16:01:16.366Z,12.70
2023-01-12T16:04:09.603Z,12.60
2023-01-12T16:06:32.694Z,12.60
2023-01-12T16:09:01.174Z,12.50
2023-01-12T16:11:36.025Z,12.40
2023-01-12T16:14:04.081Z,12.40
2023-01-12T16:16:31.819Z,12.30
2023-01-12T16:19:00.056Z,12.20
2023-01-12T16:21:29.418Z,12.10
2023-01-12T16:23:58.260Z,12.10
2023-01-12T16:26:31.929Z,12.10
2023-01-12T16:29:15.357Z,12.00
2023-01-12T16:31:43.669Z,11.90
2023-01-12T16:34:11.756Z,11.90
2023-01-12T16:36:39.608Z,11.80
2023-01-12T16:39:07.513Z,11.70
2023-01-12T16:41:37.019Z,11.70
2023-01-12T16:44:05.260Z,11.70
2023-01-12T16:46:32.995Z,11.60
2023-01-12T16:49:02.943Z,11.60
2023-01-12T16:51:30.756Z,11.40
2023-01-12T16:53:59.614Z,11.50
2023-01-12T16:56:27.288Z,11.50
2023-01-12T16:58:57.640Z,11.50
2023-01-12T17:01:26.534Z,11.40
2023-01-12T17:03:58.438Z,11.30
2023-01-12T17:06:28.001Z,11.30
2023-01-12T17:08:56.553Z,11.30
2023-01-12T17:11:25.110Z,11.40
2023-01-12T17:13:54.590Z,11.40
2023-01-12T17:16:25.761Z,11.30
2023-01-12T17:18:54.253Z,11.30
2023-01-12T17:21:22.968Z,11.30
2023-01-12T17:23:51.013Z,11.20
2023-01-12T17:26:19.455Z,11.10
2023-01-12T17:28:47.967Z,11.10
2023-01-12T17:31:18.220Z,11.20
2023-01-12T17:33:48.006Z,11.20
2023-01-12T17:36:17.270Z,11.10
2023-01-12T17:38:45.186Z,11.10
2023-01-12T17:41:35.281Z,11.10
2023-01-12T17:44:05.770Z,11.10
2023-01-12T17:46:34.016Z,11.10
2023-01-12T17:49:06.352Z,11.20
2023-01-12T17:51:34.580Z,11.20
2023-01-12T17:54:03.521Z,11.20
2023-01-12T17:56:33.221Z,11.20
2023-01-12T17:59:02.186Z,11.20
2023-01-12T18:01:32.207Z,11.10
2023-01-12T18:04:02.979Z,11.10
2023-01-12T18:06:32.229Z,11.10
2023-01-12T18:09:01.018Z,11.10
2023-01-12T18:11:30.046Z,11.10
2023-01-12T18:13:59.260Z,11.00
2023-01-12T18:16:28.712Z,11.00
2023-01-12T18:18:57.197Z,11.00
2023-01-12T18:21:28.189Z,11.00
2023-01-12T18:23:57.433Z,10.90
2023-01-12T18:26:27.322Z,11.00
2023-01-12T18:28:56.984Z,11.00
2023-01-12T18:31:29.119Z,10.90
2023-01-12T18:34:21.717Z,10.90
2023-01-12T18:36:52.335Z,10.80
2023-01-12T18:39:21.583Z,10.80
2023-01-12T18:42:09.351Z,10.80
2023-01-12T18:44:39.343Z,10.80
2023-01-12T18:47:27.411Z,10.70
2023-01-12T18:49:58.032Z,10.60
2023-01-12T18:52:46.482Z,10.60
2023-01-12T18:55:14.929Z,10.50
2023-01-12T18:57:43.296Z,10.50
2023-01-12T19:00:18.200Z,10.50
2023-01-12T19:02:47.379Z,10.50
2023-01-12T19:05:20.712Z,10.50
2023-01-12T19:08:00.158Z,10.50
2023-01-12T19:10:29.685Z,10.40
2023-01-12T19:13:17.266Z,10.40
2023-01-12T19:16:04.365Z,10.40
2023-01-12T19:18:35.368Z,10.30
2023-01-12T19:21:27.227Z,10.20
2023-01-12T19:24:15.547Z,10.20
2023-01-12T19:27:02.394Z,10.20
2023-01-12T19:29:31.062Z,10.20
2023-01-12T19:31:59.374Z,10.20
2023-01-12T19:34:28.078Z,10.20
2023-01-12T19:36:56.647Z,10.20
2023-01-12T19:39:49.238Z,10.20
2023-01-12T19:42:36.623Z,10.20
2023-01-12T19:45:09.743Z,10.20
2023-01-12T19:47:38.697Z,10.10
2023-01-12T19:50:08.649Z,10.10
2023-01-12T19:52:37.610Z,10.10
2023-01-12T19:55:12.088Z,10.00
2023-01-12T19:57:41.544Z,10.00
2023-01-12T20:00:12.887Z,9.90
2023-01-12T20:02:41.465Z,9.90
2023-01-12T20:05:13.315Z,9.80
2023-01-12T20:07:41.967Z,9.80
2023-01-12T20:10:20.969Z,9.80
2023-01-12T20:12:51.997Z,9.80
2023-01-12T20:15:21.125Z,9.80
2023-01-12T20:17:50.490Z,9.80
2023-01-12T20:20:19.469Z,9.80
2023-01-12T20:22:50.819Z,9.80
2023-01-12T20:25:21.393Z,9.80
2023-01-12T20:27:50.502Z,9.70
2023-01-12T20:30:36.512Z,9.70
2023-01-12T20:33:06.578Z,9.70
2023-01-12T20:35:35.804Z,9.70
2023-01-12T20:38:07.151Z,9.70
2023-01-12T20:40:39.290Z,9.70
2023-01-12T20:43:07.809Z,9.60
2023-01-12T20:45:36.050Z,9.60
2023-01-12T20:48:06.573Z,9.60
2023-01-12T20:50:36.077Z,9.60
2023-01-12T20:53:04.712Z,9.60
2023-01-12T20:55:33.295Z,9.50
2023-01-12T20:58:03.149Z,9.50
2023-01-12T21:00:32.314Z,9.40
2023-01-12T21:03:00.698Z,9.40
2023-01-12T21:05:29.422Z,9.40
2023-01-12T21:08:07.440Z,9.30
2023-01-12T21:10:37.281Z,9.30
2023-01-12T21:13:07.645Z,9.20
2023-01-12T21:15:36.175Z,9.10
2023-01-12T21:18:04.804Z,9.20
2023-01-12T21:20:33.415Z,9.20
2023-01-12T21:23:01.730Z,9.30
2023-01-12T21:25:30.127Z,9.20
2023-01-12T21:27:58.478Z,9.20
2023-01-12T21:30:28.914Z,9.20
2023-01-12T21:32:57.279Z,9.20
2023-01-12T21:35:26.815Z,9.10
2023-01-12T21:37:55.153Z,9.20
2023-01-12T21:40:23.530Z,9.20
2023-01-12T21:43:10.211Z,9.10
2023-01-12T21:45:42.936Z,9.20
2023-01-12T21:48:12.570Z,9.20
2023-01-12T21:50:41.007Z,9.20
2023-01-12T21:53:12.703Z,9.10
2023-01-12T21:55:41.009Z,9.10
2023-01-12T21:58:09.555Z,9.10
2023-01-12T22:00:39.326Z,9.10
2023-01-12T22:03:07.689Z,9.00
2023-01-12T22:05:36.650Z,9.00
2023-01-12T22:08:04.755Z,9.00
2023-01-12T22:10:33.579Z,9.00
2023-01-12T22:13:05.952Z,9.00
2023-01-12T22:15:34.238Z,9.00
2023-01-12T22:18:03.847Z,9.00
2023-01-12T22:20:31.749Z,9.00
2023-01-12T22:23:00.194Z,8.90
2023-01-12T22:25:28.163Z,8.90
2023-01-12T22:27:56.963Z,8.80
2023-01-12T22:30:24.970Z,8.80
2023-01-12T22:32:54.748Z,8.70
2023-01-12T22:35:27.450Z,8.60
2023-01-12T22:37:55.993Z,8.70
2023-01-12T22:40:23.674Z,8.80
2023-01-12T22:43:10.784Z,8.80
2023-01-12T22:45:38.694Z,8.70
2023-01-12T22:48:06.980Z,8.60
2023-01-12T22:50:36.553Z,8.70
2023-01-12T22:53:04.338Z,8.80
2023-01-12T22:55:32.153Z,8.80
2023-01-12T22:58:00.473Z,8.70
2023-01-12T23:00:28.087Z,8.60
2023-01-12T23:03:02.022Z,8.60
2023-01-12T23:05:32.668Z,8.60
2023-01-12T23:08:02.073Z,8.60
2023-01-12T23:10:29.910Z,8.60
2023-01-12T23:13:16.496Z,8.60
2023-01-12T23:15:47.074Z,8.70
2023-01-12T23:18:16.081Z,8.70
2023-01-12T23:20:43.741Z,8.70
2023-01-12T23:23:13.694Z,8.60
2023-01-12T23:25:44.691Z,8.70
2023-01-12T23:28:14.023Z,8.60
2023-01-12T23:30:42.305Z,8.60
2023-01-12T23:33:11.707Z,8.60
2023-01-12T23:35:41.536Z,8.60
2023-01-12T23:38:16.864Z,8.70
2023-01-12T23:40:45.041Z,8.70
2023-01-12T23:43:12.681Z,8.70
2023-01-12T23:45:40.249Z,8.70
2023-01-12T23:48:07.997Z,8.70
2023-01-12T23:50:35.564Z,8.70
2023-01-12T23:53:03.241Z,8.70
2023-01-12T23:55:32.277Z,8.60
2023-01-12T23:58:00.329Z,8.70
